sensor_id;sensor_type;location;lat;lon;timestamp;temperature;humidity
31131;DHT22;20292;50.944;4.034;2022-08-03T00:00:43;24.40;99.90
31131;DHT22;20292;50.944;4.034;2022-08-03T00:03:09;24.30;99.90
31131;DHT22;20292;50.944;4.034;2022-08-03T00:05:35;24.30;99.90
31131;DHT22;20292;50.944;4.034;2022-08-03T00:08:01;24.30;99.90
31131;DHT22;20292;50.944;4.034;2022-08-03T00:10:26;24.20;99.90
31131;DHT22;20292;50.944;4.034;2022-08-03T00:12:52;24.20;99.90
31131;DHT22;20292;50.944;4.034;2022-08-03T00:15:18;24.10;99.90
31131;DHT22;20292;50.944;4.034;2022-08-03T00:17:44;24.00;99.90
31131;DHT22;20292;50.944;4.034;2022-08-03T00:20:10;24.00;99.90
31131;DHT22;20292;50.944;4.034;2022-08-03T00:22:36;23.90;99.90
31131;DHT22;20292;50.944;4.034;2022-08-03T00:25:02;23.90;99.90
31131;DHT22;20292;50.944;4.034;2022-08-03T00:27:28;23.80;99.90
31131;DHT22;20292;50.944;4.034;2022-08-03T00:29:53;23.90;99.90
31131;DHT22;20292;50.944;4.034;2022-08-03T00:32:19;23.90;99.90
31131;DHT22;20292;50.944;4.034;2022-08-03T00:34:44;23.80;99.90
31131;DHT22;20292;50.944;4.034;2022-08-03T00:37:10;23.70;99.90
31131;DHT22;20292;50.944;4.034;2022-08-03T00:39:35;23.70;99.90
31131;DHT22;20292;50.944;4.034;2022-08-03T00:42:02;23.70;99.90
31131;DHT22;20292;50.944;4.034;2022-08-03T00:44:28;23.60;99.90
31131;DHT22;20292;50.944;4.034;2022-08-03T00:46:54;23.60;99.90
31131;DHT22;20292;50.944;4.034;2022-08-03T00:49:20;23.50;99.90
31131;DHT22;20292;50.944;4.034;2022-08-03T00:51:46;23.50;99.90
31131;DHT22;20292;50.944;4.034;2022-08-03T00:54:13;23.50;99.90
31131;DHT22;20292;50.944;4.034;2022-08-03T00:56:40;23.50;99.90
31131;DHT22;20292;50.944;4.034;2022-08-03T00:59:08;23.50;99.90
31131;DHT22;20292;50.944;4.034;2022-08-03T01:01:34;23.40;99.90
31131;DHT22;20292;50.944;4.034;2022-08-03T01:03:59;23.40;99.90
31131;DHT22;20292;50.944;4.034;2022-08-03T01:06:33;23.40;99.90
31131;DHT22;20292;50.944;4.034;2022-08-03T01:09:19;23.30;99.90
31131;DHT22;20292;50.944;4.034;2022-08-03T01:12:00;23.30;99.90
31131;DHT22;20292;50.944;4.034;2022-08-03T01:14:57;23.30;99.90
31131;DHT22;20292;50.944;4.034;2022-08-03T01:17:48;23.20;99.90
31131;DHT22;20292;50.944;4.034;2022-08-03T01:20:17;23.10;99.90
31131;DHT22;20292;50.944;4.034;2022-08-03T01:26:12;23.10;99.90
31131;DHT22;20292;50.944;4.034;2022-08-03T01:28:53;23.10;99.90
31131;DHT22;20292;50.944;4.034;2022-08-03T01:31:26;23.10;99.90
31131;DHT22;20292;50.944;4.034;2022-08-03T01:34:00;23.00;99.90
31131;DHT22;20292;50.944;4.034;2022-08-03T01:36:33;23.00;99.90
31131;DHT22;20292;50.944;4.034;2022-08-03T01:39:02;23.10;99.90
31131;DHT22;20292;50.944;4.034;2022-08-03T01:41:30;23.10;99.90
31131;DHT22;20292;50.944;4.034;2022-08-03T01:44:00;23.00;99.90
31131;DHT22;20292;50.944;4.034;2022-08-03T01:46:28;23.00;99.90
31131;DHT22;20292;50.944;4.034;2022-08-03T01:48:54;23.00;99.90
31131;DHT22;20292;50.944;4.034;2022-08-03T01:51:21;22.90;99.90
31131;DHT22;20292;50.944;4.034;2022-08-03T01:53:48;22.90;99.90
31131;DHT22;20292;50.944;4.034;2022-08-03T01:56:16;22.90;99.90
31131;DHT22;20292;50.944;4.034;2022-08-03T01:58:44;22.90;99.90
31131;DHT22;20292;50.944;4.034;2022-08-03T02:01:11;22.90;99.90
31131;DHT22;20292;50.944;4.034;2022-08-03T02:03:39;22.80;99.90
31131;DHT22;20292;50.944;4.034;2022-08-03T02:06:09;22.80;99.90
31131;DHT22;20292;50.944;4.034;2022-08-03T02:08:40;22.70;99.90
31131;DHT22;20292;50.944;4.034;2022-08-03T02:11:07;22.70;99.90
31131;DHT22;20292;50.944;4.034;2022-08-03T02:13:34;22.70;99.90
31131;DHT22;20292;50.944;4.034;2022-08-03T02:16:03;22.70;99.90
31131;DHT22;20292;50.944;4.034;2022-08-03T02:18:30;22.70;99.90
31131;DHT22;20292;50.944;4.034;2022-08-03T02:20:57;22.70;99.90
31131;DHT22;20292;50.944;4.034;2022-08-03T02:23:24;22.60;99.90
31131;DHT22;20292;50.944;4.034;2022-08-03T02:25:55;22.60;99.90
31131;DHT22;20292;50.944;4.034;2022-08-03T02:28:28;22.60;99.90
31131;DHT22;20292;50.944;4.034;2022-08-03T02:30:57;22.50;99.90
31131;DHT22;20292;50.944;4.034;2022-08-03T02:33:27;22.50;99.90
31131;DHT22;20292;50.944;4.034;2022-08-03T02:35:56;22.50;99.90
31131;DHT22;20292;50.944;4.034;2022-08-03T02:38:27;22.50;99.90
31131;DHT22;20292;50.944;4.034;2022-08-03T02:40:56;22.40;99.90
31131;DHT22;20292;50.944;4.034;2022-08-03T02:43:23;22.30;99.90
31131;DHT22;20292;50.944;4.034;2022-08-03T02:45:50;22.40;99.90
31131;DHT22;20292;50.944;4.034;2022-08-03T02:48:21;22.40;99.90
31131;DHT22;20292;50.944;4.034;2022-08-03T02:50:50;22.40;99.90
31131;DHT22;20292;50.944;4.034;2022-08-03T02:53:18;22.30;99.90
31131;DHT22;20292;50.944;4.034;2022-08-03T02:55:46;22.20;99.90
31131;DHT22;20292;50.944;4.034;2022-08-03T02:58:13;22.30;99.90
31131;DHT22;20292;50.944;4.034;2022-08-03T03:00:39;22.30;99.90
31131;DHT22;20292;50.944;4.034;2022-08-03T03:03:05;22.30;99.90
31131;DHT22;20292;50.944;4.034;2022-08-03T03:05:33;22.20;99.90
31131;DHT22;20292;50.944;4.034;2022-08-03T03:07:59;22.20;99.90
31131;DHT22;20292;50.944;4.034;2022-08-03T03:10:25;22.20;99.90
31131;DHT22;20292;50.944;4.034;2022-08-03T03:12:54;22.10;99.90
31131;DHT22;20292;50.944;4.034;2022-08-03T03:15:21;22.10;99.90
31131;DHT22;20292;50.944;4.034;2022-08-03T03:17:48;22.10;99.90
31131;DHT22;20292;50.944;4.034;2022-08-03T03:20:15;22.00;99.90
31131;DHT22;20292;50.944;4.034;2022-08-03T03:22:42;21.90;99.90
31131;DHT22;20292;50.944;4.034;2022-08-03T03:25:09;21.90;99.90
31131;DHT22;20292;50.944;4.034;2022-08-03T03:27:35;22.00;99.90
31131;DHT22;20292;50.944;4.034;2022-08-03T03:30:02;21.90;99.90
31131;DHT22;20292;50.944;4.034;2022-08-03T03:32:28;22.00;99.90
31131;DHT22;20292;50.944;4.034;2022-08-03T03:34:55;22.00;99.90
31131;DHT22;20292;50.944;4.034;2022-08-03T03:37:21;22.00;99.90
31131;DHT22;20292;50.944;4.034;2022-08-03T03:39:47;22.00;99.90
31131;DHT22;20292;50.944;4.034;2022-08-03T03:42:12;22.00;99.90
31131;DHT22;20292;50.944;4.034;2022-08-03T03:44:38;22.00;99.90
31131;DHT22;20292;50.944;4.034;2022-08-03T03:47:04;22.00;99.90
31131;DHT22;20292;50.944;4.034;2022-08-03T03:49:30;22.00;99.90
31131;DHT22;20292;50.944;4.034;2022-08-03T03:51:56;21.90;99.90
31131;DHT22;20292;50.944;4.034;2022-08-03T03:54:22;21.90;99.90
31131;DHT22;20292;50.944;4.034;2022-08-03T03:56:48;21.90;99.90
31131;DHT22;20292;50.944;4.034;2022-08-03T03:59:13;21.90;99.90
31131;DHT22;20292;50.944;4.034;2022-08-03T04:01:39;21.90;99.90
31131;DHT22;20292;50.944;4.034;2022-08-03T04:04:05;21.90;99.90
31131;DHT22;20292;50.944;4.034;2022-08-03T04:06:49;21.90;99.90
31131;DHT22;20292;50.944;4.034;2022-08-03T04:09:38;21.90;99.90
31131;DHT22;20292;50.944;4.034;2022-08-03T04:12:25;21.90;99.90
31131;DHT22;20292;50.944;4.034;2022-08-03T04:14:53;22.00;99.90
31131;DHT22;20292;50.944;4.034;2022-08-03T04:17:22;21.90;99.90
31131;DHT22;20292;50.944;4.034;2022-08-03T04:19:52;21.90;99.90
31131;DHT22;20292;50.944;4.034;2022-08-03T04:22:23;21.90;99.90
31131;DHT22;20292;50.944;4.034;2022-08-03T04:24:54;21.90;99.90
31131;DHT22;20292;50.944;4.034;2022-08-03T04:27:26;21.90;99.90
31131;DHT22;20292;50.944;4.034;2022-08-03T04:29:54;21.90;99.90
31131;DHT22;20292;50.944;4.034;2022-08-03T04:32:22;22.00;99.90
31131;DHT22;20292;50.944;4.034;2022-08-03T04:34:51;22.00;99.90
31131;DHT22;20292;50.944;4.034;2022-08-03T04:37:38;22.00;99.90
31131;DHT22;20292;50.944;4.034;2022-08-03T04:40:09;22.10;99.90
31131;DHT22;20292;50.944;4.034;2022-08-03T04:42:36;22.10;99.90
31131;DHT22;20292;50.944;4.034;2022-08-03T04:45:04;22.10;99.90
31131;DHT22;20292;50.944;4.034;2022-08-03T04:47:32;22.10;99.90
31131;DHT22;20292;50.944;4.034;2022-08-03T04:50:00;22.20;99.90
31131;DHT22;20292;50.944;4.034;2022-08-03T04:52:26;22.20;99.90
31131;DHT22;20292;50.944;4.034;2022-08-03T04:54:52;22.30;99.90
31131;DHT22;20292;50.944;4.034;2022-08-03T04:57:17;22.40;99.90
31131;DHT22;20292;50.944;4.034;2022-08-03T04:59:43;22.60;99.90
31131;DHT22;20292;50.944;4.034;2022-08-03T05:02:09;22.70;99.90
31131;DHT22;20292;50.944;4.034;2022-08-03T05:04:35;23.00;99.90
31131;DHT22;20292;50.944;4.034;2022-08-03T05:07:02;23.50;99.90
31131;DHT22;20292;50.944;4.034;2022-08-03T05:09:28;24.10;99.90
31131;DHT22;20292;50.944;4.034;2022-08-03T05:11:54;24.90;99.90
31131;DHT22;20292;50.944;4.034;2022-08-03T05:14:19;25.30;99.90
31131;DHT22;20292;50.944;4.034;2022-08-03T05:16:45;26.00;99.90
31131;DHT22;20292;50.944;4.034;2022-08-03T05:19:11;26.30;99.90
31131;DHT22;20292;50.944;4.034;2022-08-03T05:21:37;26.50;99.90
31131;DHT22;20292;50.944;4.034;2022-08-03T05:24:02;27.00;99.90
31131;DHT22;20292;50.944;4.034;2022-08-03T05:26:28;27.70;99.90
31131;DHT22;20292;50.944;4.034;2022-08-03T05:28:54;28.50;99.90
31131;DHT22;20292;50.944;4.034;2022-08-03T05:31:19;29.20;99.90
31131;DHT22;20292;50.944;4.034;2022-08-03T05:33:45;29.70;99.90
31131;DHT22;20292;50.944;4.034;2022-08-03T05:36:13;30.00;99.90
31131;DHT22;20292;50.944;4.034;2022-08-03T05:38:38;30.40;99.90
31131;DHT22;20292;50.944;4.034;2022-08-03T05:41:04;30.90;99.90
31131;DHT22;20292;50.944;4.034;2022-08-03T05:43:29;31.10;99.90
31131;DHT22;20292;50.944;4.034;2022-08-03T05:45:56;31.60;99.90
31131;DHT22;20292;50.944;4.034;2022-08-03T05:48:22;31.90;99.90
31131;DHT22;20292;50.944;4.034;2022-08-03T05:50:48;32.20;99.90
31131;DHT22;20292;50.944;4.034;2022-08-03T05:53:14;32.40;99.90
31131;DHT22;20292;50.944;4.034;2022-08-03T05:55:40;32.50;99.90
31131;DHT22;20292;50.944;4.034;2022-08-03T05:58:05;32.70;99.90
31131;DHT22;20292;50.944;4.034;2022-08-03T06:00:31;32.80;99.90
31131;DHT22;20292;50.944;4.034;2022-08-03T06:02:56;33.40;99.90
31131;DHT22;20292;50.944;4.034;2022-08-03T06:05:22;33.50;99.90
31131;DHT22;20292;50.944;4.034;2022-08-03T06:07:48;34.00;99.90
31131;DHT22;20292;50.944;4.034;2022-08-03T06:10:13;34.30;99.50
31131;DHT22;20292;50.944;4.034;2022-08-03T06:12:39;34.80;98.20
31131;DHT22;20292;50.944;4.034;2022-08-03T06:15:06;34.90;97.40
31131;DHT22;20292;50.944;4.034;2022-08-03T06:17:31;34.90;96.80
31131;DHT22;20292;50.944;4.034;2022-08-03T06:19:57;34.70;96.90
31131;DHT22;20292;50.944;4.034;2022-08-03T06:22:23;34.90;96.30
31131;DHT22;20292;50.944;4.034;2022-08-03T06:24:48;34.90;96.10
31131;DHT22;20292;50.944;4.034;2022-08-03T06:27:14;34.90;96.00
31131;DHT22;20292;50.944;4.034;2022-08-03T06:29:39;34.90;95.60
31131;DHT22;20292;50.944;4.034;2022-08-03T06:32:05;35.00;95.50
31131;DHT22;20292;50.944;4.034;2022-08-03T06:34:31;34.90;95.20
31131;DHT22;20292;50.944;4.034;2022-08-03T06:36:56;35.00;95.00
31131;DHT22;20292;50.944;4.034;2022-08-03T06:39:23;35.00;94.60
31131;DHT22;20292;50.944;4.034;2022-08-03T06:41:48;35.80;94.00
31131;DHT22;20292;50.944;4.034;2022-08-03T06:44:14;35.90;93.40
31131;DHT22;20292;50.944;4.034;2022-08-03T06:46:40;35.90;92.90
31131;DHT22;20292;50.944;4.034;2022-08-03T06:49:06;35.90;92.80
31131;DHT22;20292;50.944;4.034;2022-08-03T06:51:32;35.80;92.70
31131;DHT22;20292;50.944;4.034;2022-08-03T06:53:58;36.40;92.00
31131;DHT22;20292;50.944;4.034;2022-08-03T06:56:23;36.50;91.40
31131;DHT22;20292;50.944;4.034;2022-08-03T06:58:49;36.50;91.20
31131;DHT22;20292;50.944;4.034;2022-08-03T07:01:14;36.20;91.00
31131;DHT22;20292;50.944;4.034;2022-08-03T07:03:40;36.30;90.80
31131;DHT22;20292;50.944;4.034;2022-08-03T07:06:06;36.30;90.70
31131;DHT22;20292;50.944;4.034;2022-08-03T07:08:32;36.50;90.50
31131;DHT22;20292;50.944;4.034;2022-08-03T07:10:57;37.30;89.10
31131;DHT22;20292;50.944;4.034;2022-08-03T07:13:23;37.50;87.70
31131;DHT22;20292;50.944;4.034;2022-08-03T07:15:48;37.40;86.60
31131;DHT22;20292;50.944;4.034;2022-08-03T07:18:14;37.10;86.30
31131;DHT22;20292;50.944;4.034;2022-08-03T07:20:40;37.60;86.30
31131;DHT22;20292;50.944;4.034;2022-08-03T07:23:05;37.90;84.80
31131;DHT22;20292;50.944;4.034;2022-08-03T07:25:31;37.70;84.50
31131;DHT22;20292;50.944;4.034;2022-08-03T07:27:57;37.90;84.40
31131;DHT22;20292;50.944;4.034;2022-08-03T07:30:22;37.50;83.90
31131;DHT22;20292;50.944;4.034;2022-08-03T07:32:48;38.10;83.50
31131;DHT22;20292;50.944;4.034;2022-08-03T07:35:13;38.50;81.90
31131;DHT22;20292;50.944;4.034;2022-08-03T07:37:39;38.80;80.80
31131;DHT22;20292;50.944;4.034;2022-08-03T07:40:05;38.90;79.80
31131;DHT22;20292;50.944;4.034;2022-08-03T07:42:31;39.20;78.70
31131;DHT22;20292;50.944;4.034;2022-08-03T07:44:58;39.20;78.20
31131;DHT22;20292;50.944;4.034;2022-08-03T07:47:28;39.60;77.30
31131;DHT22;20292;50.944;4.034;2022-08-03T07:49:54;39.80;75.90
31131;DHT22;20292;50.944;4.034;2022-08-03T07:52:20;39.60;75.60
31131;DHT22;20292;50.944;4.034;2022-08-03T07:55:05;39.80;74.50
31131;DHT22;20292;50.944;4.034;2022-08-03T07:57:31;40.60;73.50
31131;DHT22;20292;50.944;4.034;2022-08-03T07:59:57;40.60;72.20
31131;DHT22;20292;50.944;4.034;2022-08-03T08:02:23;40.50;71.50
31131;DHT22;20292;50.944;4.034;2022-08-03T08:04:48;40.50;71.20
31131;DHT22;20292;50.944;4.034;2022-08-03T08:07:14;40.00;71.20
31131;DHT22;20292;50.944;4.034;2022-08-03T08:09:39;39.30;72.20
31131;DHT22;20292;50.944;4.034;2022-08-03T08:12:05;39.40;72.70
31131;DHT22;20292;50.944;4.034;2022-08-03T08:14:32;40.00;71.70
31131;DHT22;20292;50.944;4.034;2022-08-03T08:16:58;40.30;71.00
31131;DHT22;20292;50.944;4.034;2022-08-03T08:19:24;40.00;70.70
31131;DHT22;20292;50.944;4.034;2022-08-03T08:21:49;39.90;70.60
31131;DHT22;20292;50.944;4.034;2022-08-03T08:24:15;39.60;71.10
31131;DHT22;20292;50.944;4.034;2022-08-03T08:26:41;38.80;72.20
31131;DHT22;20292;50.944;4.034;2022-08-03T08:29:06;39.00;72.60
31131;DHT22;20292;50.944;4.034;2022-08-03T08:31:32;39.20;72.30
31131;DHT22;20292;50.944;4.034;2022-08-03T08:33:57;39.20;71.80
31131;DHT22;20292;50.944;4.034;2022-08-03T08:36:23;39.20;72.10
31131;DHT22;20292;50.944;4.034;2022-08-03T08:38:49;39.20;72.10
31131;DHT22;20292;50.944;4.034;2022-08-03T08:41:14;39.60;71.30
31131;DHT22;20292;50.944;4.034;2022-08-03T08:43:41;39.90;70.60
31131;DHT22;20292;50.944;4.034;2022-08-03T08:46:10;40.10;69.40
31131;DHT22;20292;50.944;4.034;2022-08-03T08:48:39;40.10;69.40
31131;DHT22;20292;50.944;4.034;2022-08-03T08:51:07;40.40;68.20
31131;DHT22;20292;50.944;4.034;2022-08-03T08:53:36;39.60;68.80
31131;DHT22;20292;50.944;4.034;2022-08-03T08:56:06;39.20;69.00
31131;DHT22;20292;50.944;4.034;2022-08-03T08:58:37;39.00;70.10
31131;DHT22;20292;50.944;4.034;2022-08-03T09:01:05;39.10;69.70
31131;DHT22;20292;50.944;4.034;2022-08-03T09:03:32;39.70;69.00
31131;DHT22;20292;50.944;4.034;2022-08-03T09:05:59;39.80;69.10
31131;DHT22;20292;50.944;4.034;2022-08-03T09:08:27;40.00;68.80
31131;DHT22;20292;50.944;4.034;2022-08-03T09:10:53;39.90;68.00
31131;DHT22;20292;50.944;4.034;2022-08-03T09:13:18;39.60;67.90
31131;DHT22;20292;50.944;4.034;2022-08-03T09:15:44;39.20;68.80
31131;DHT22;20292;50.944;4.034;2022-08-03T09:18:10;39.40;68.90
31131;DHT22;20292;50.944;4.034;2022-08-03T09:20:37;39.70;67.70
31131;DHT22;20292;50.944;4.034;2022-08-03T09:23:05;39.80;67.50
31131;DHT22;20292;50.944;4.034;2022-08-03T09:25:37;39.90;66.80
31131;DHT22;20292;50.944;4.034;2022-08-03T09:30:38;39.20;66.80
31131;DHT22;20292;50.944;4.034;2022-08-03T09:33:09;39.40;66.90
31131;DHT22;20292;50.944;4.034;2022-08-03T09:35:42;39.40;66.60
31131;DHT22;20292;50.944;4.034;2022-08-03T09:38:19;39.30;66.50
31131;DHT22;20292;50.944;4.034;2022-08-03T09:40:53;39.40;65.20
31131;DHT22;20292;50.944;4.034;2022-08-03T09:43:19;39.10;65.10
31131;DHT22;20292;50.944;4.034;2022-08-03T09:45:45;38.60;65.70
31131;DHT22;20292;50.944;4.034;2022-08-03T09:48:28;38.70;66.40
31131;DHT22;20292;50.944;4.034;2022-08-03T09:50:58;38.70;66.30
31131;DHT22;20292;50.944;4.034;2022-08-03T09:53:24;39.00;65.90
31131;DHT22;20292;50.944;4.034;2022-08-03T09:55:55;38.60;65.60
31131;DHT22;20292;50.944;4.034;2022-08-03T09:58:22;38.20;66.60
31131;DHT22;20292;50.944;4.034;2022-08-03T10:00:57;37.50;68.20
31131;DHT22;20292;50.944;4.034;2022-08-03T10:03:24;37.10;68.90
31131;DHT22;20292;50.944;4.034;2022-08-03T10:05:50;36.90;69.70
31131;DHT22;20292;50.944;4.034;2022-08-03T10:08:18;36.30;71.00
31131;DHT22;20292;50.944;4.034;2022-08-03T10:10:47;35.90;72.20
31131;DHT22;20292;50.944;4.034;2022-08-03T10:13:15;35.50;72.60
31131;DHT22;20292;50.944;4.034;2022-08-03T10:15:41;35.30;73.60
31131;DHT22;20292;50.944;4.034;2022-08-03T10:18:07;35.10;75.10
31131;DHT22;20292;50.944;4.034;2022-08-03T10:20:42;34.90;74.90
31131;DHT22;20292;50.944;4.034;2022-08-03T10:23:09;34.60;76.20
31131;DHT22;20292;50.944;4.034;2022-08-03T10:25:37;34.40;77.00
31131;DHT22;20292;50.944;4.034;2022-08-03T10:28:03;34.20;77.20
31131;DHT22;20292;50.944;4.034;2022-08-03T10:30:32;34.20;77.60
31131;DHT22;20292;50.944;4.034;2022-08-03T10:33:02;34.10;78.20
31131;DHT22;20292;50.944;4.034;2022-08-03T10:35:29;33.80;78.30
31131;DHT22;20292;50.944;4.034;2022-08-03T10:38:03;33.80;79.10
31131;DHT22;20292;50.944;4.034;2022-08-03T10:40:31;33.70;79.10
31131;DHT22;20292;50.944;4.034;2022-08-03T10:43:09;33.60;80.10
31131;DHT22;20292;50.944;4.034;2022-08-03T10:45:40;33.30;80.70
31131;DHT22;20292;50.944;4.034;2022-08-03T10:48:07;33.00;82.30
31131;DHT22;20292;50.944;4.034;2022-08-03T10:50:33;32.90;82.30
31131;DHT22;20292;50.944;4.034;2022-08-03T10:53:02;32.90;83.10
31131;DHT22;20292;50.944;4.034;2022-08-03T11:03:28;32.80;82.80
31131;DHT22;20292;50.944;4.034;2022-08-03T11:06:14;32.80;82.90
31131;DHT22;20292;50.944;4.034;2022-08-03T11:08:47;32.80;83.70
31131;DHT22;20292;50.944;4.034;2022-08-03T11:14:00;32.70;84.40
31131;DHT22;20292;50.944;4.034;2022-08-03T11:16:31;32.90;84.60
31131;DHT22;20292;50.944;4.034;2022-08-03T11:18:57;32.80;84.00
31131;DHT22;20292;50.944;4.034;2022-08-03T11:27:20;32.80;84.50
31131;DHT22;20292;50.944;4.034;2022-08-03T11:35:19;32.60;84.00
31131;DHT22;20292;50.944;4.034;2022-08-03T11:40:47;32.60;85.20
31131;DHT22;20292;50.944;4.034;2022-08-03T11:46:05;32.60;84.60
31131;DHT22;20292;50.944;4.034;2022-08-03T11:48:38;32.60;85.00
31131;DHT22;20292;50.944;4.034;2022-08-03T11:51:27;32.70;84.70
31131;DHT22;20292;50.944;4.034;2022-08-03T11:54:01;32.70;85.60
31131;DHT22;20292;50.944;4.034;2022-08-03T11:56:28;32.80;85.00
31131;DHT22;20292;50.944;4.034;2022-08-03T11:59:07;32.90;84.80
31131;DHT22;20292;50.944;4.034;2022-08-03T12:01:33;32.90;84.20
31131;DHT22;20292;50.944;4.034;2022-08-03T12:04:02;32.90;84.00
31131;DHT22;20292;50.944;4.034;2022-08-03T12:06:29;33.00;84.60
31131;DHT22;20292;50.944;4.034;2022-08-03T12:08:54;33.10;84.60
31131;DHT22;20292;50.944;4.034;2022-08-03T12:11:20;33.20;82.80
31131;DHT22;20292;50.944;4.034;2022-08-03T12:13:48;33.20;82.70
31131;DHT22;20292;50.944;4.034;2022-08-03T12:16:19;33.30;82.70
31131;DHT22;20292;50.944;4.034;2022-08-03T12:18:54;33.40;81.90
31131;DHT22;20292;50.944;4.034;2022-08-03T12:21:21;33.50;82.10
31131;DHT22;20292;50.944;4.034;2022-08-03T12:23:49;33.60;82.00
31131;DHT22;20292;50.944;4.034;2022-08-03T12:26:15;33.50;80.90
31131;DHT22;20292;50.944;4.034;2022-08-03T12:28:47;33.50;81.90
31131;DHT22;20292;50.944;4.034;2022-08-03T12:31:12;33.60;82.30
31131;DHT22;20292;50.944;4.034;2022-08-03T12:34:00;33.70;81.40
31131;DHT22;20292;50.944;4.034;2022-08-03T12:36:31;33.80;81.30
31131;DHT22;20292;50.944;4.034;2022-08-03T12:39:05;33.80;81.40
31131;DHT22;20292;50.944;4.034;2022-08-03T12:41:36;33.90;80.80
31131;DHT22;20292;50.944;4.034;2022-08-03T12:44:04;33.90;81.00
31131;DHT22;20292;50.944;4.034;2022-08-03T12:46:32;34.00;80.20
31131;DHT22;20292;50.944;4.034;2022-08-03T12:49:14;34.20;80.50
31131;DHT22;20292;50.944;4.034;2022-08-03T12:54:06;34.50;78.70
31131;DHT22;20292;50.944;4.034;2022-08-03T12:56:33;34.60;77.10
31131;DHT22;20292;50.944;4.034;2022-08-03T12:58:58;34.80;77.20
31131;DHT22;20292;50.944;4.034;2022-08-03T13:01:24;34.80;77.30
31131;DHT22;20292;50.944;4.034;2022-08-03T13:03:52;34.90;76.60
31131;DHT22;20292;50.944;4.034;2022-08-03T13:06:25;34.90;77.10
31131;DHT22;20292;50.944;4.034;2022-08-03T13:09:04;34.90;77.40
31131;DHT22;20292;50.944;4.034;2022-08-03T13:11:30;34.80;77.40
31131;DHT22;20292;50.944;4.034;2022-08-03T13:13:56;34.70;78.00
31131;DHT22;20292;50.944;4.034;2022-08-03T13:16:22;34.90;77.50
31131;DHT22;20292;50.944;4.034;2022-08-03T13:18:49;34.80;77.50
31131;DHT22;20292;50.944;4.034;2022-08-03T13:21:16;34.80;77.30
31131;DHT22;20292;50.944;4.034;2022-08-03T13:23:42;34.70;77.60
31131;DHT22;20292;50.944;4.034;2022-08-03T13:26:09;34.60;77.80
31131;DHT22;20292;50.944;4.034;2022-08-03T13:28:34;34.80;77.90
31131;DHT22;20292;50.944;4.034;2022-08-03T13:31:00;35.00;77.30
31131;DHT22;20292;50.944;4.034;2022-08-03T13:33:26;34.90;75.40
31131;DHT22;20292;50.944;4.034;2022-08-03T13:35:53;35.00;74.80
31131;DHT22;20292;50.944;4.034;2022-08-03T13:38:19;35.20;75.50
31131;DHT22;20292;50.944;4.034;2022-08-03T13:40:45;35.10;75.50
31131;DHT22;20292;50.944;4.034;2022-08-03T13:43:11;35.00;76.90
31131;DHT22;20292;50.944;4.034;2022-08-03T13:45:37;35.10;75.90
31131;DHT22;20292;50.944;4.034;2022-08-03T13:48:03;35.00;76.80
31131;DHT22;20292;50.944;4.034;2022-08-03T13:50:28;34.80;75.50
31131;DHT22;20292;50.944;4.034;2022-08-03T13:52:56;34.80;75.70
31131;DHT22;20292;50.944;4.034;2022-08-03T13:55:22;34.90;76.10
31131;DHT22;20292;50.944;4.034;2022-08-03T13:57:48;34.90;74.90
31131;DHT22;20292;50.944;4.034;2022-08-03T14:00:14;34.90;74.30
31131;DHT22;20292;50.944;4.034;2022-08-03T14:02:41;34.90;74.90
31131;DHT22;20292;50.944;4.034;2022-08-03T14:05:06;34.60;75.10
31131;DHT22;20292;50.944;4.034;2022-08-03T14:07:32;34.50;75.30
31131;DHT22;20292;50.944;4.034;2022-08-03T14:09:58;34.40;75.80
31131;DHT22;20292;50.944;4.034;2022-08-03T14:12:26;34.30;76.10
31131;DHT22;20292;50.944;4.034;2022-08-03T14:14:51;34.30;75.90
31131;DHT22;20292;50.944;4.034;2022-08-03T14:17:17;34.30;76.10
31131;DHT22;20292;50.944;4.034;2022-08-03T14:19:43;34.30;74.50
31131;DHT22;20292;50.944;4.034;2022-08-03T14:22:08;34.50;74.70
31131;DHT22;20292;50.944;4.034;2022-08-03T14:24:34;34.50;74.70
31131;DHT22;20292;50.944;4.034;2022-08-03T14:26:59;34.60;74.60
31131;DHT22;20292;50.944;4.034;2022-08-03T14:29:25;34.70;74.20
31131;DHT22;20292;50.944;4.034;2022-08-03T14:31:51;34.80;74.40
31131;DHT22;20292;50.944;4.034;2022-08-03T14:34:16;34.80;74.30
31131;DHT22;20292;50.944;4.034;2022-08-03T14:36:42;34.90;73.70
31131;DHT22;20292;50.944;4.034;2022-08-03T14:39:08;34.80;73.20
31131;DHT22;20292;50.944;4.034;2022-08-03T14:41:33;34.90;73.50
31131;DHT22;20292;50.944;4.034;2022-08-03T14:43:59;34.90;73.60
31131;DHT22;20292;50.944;4.034;2022-08-03T14:46:25;35.10;73.70
31131;DHT22;20292;50.944;4.034;2022-08-03T14:48:50;35.00;73.20
31131;DHT22;20292;50.944;4.034;2022-08-03T14:51:16;34.90;72.20
31131;DHT22;20292;50.944;4.034;2022-08-03T14:53:42;34.70;73.30
31131;DHT22;20292;50.944;4.034;2022-08-03T14:56:08;34.70;73.40
31131;DHT22;20292;50.944;4.034;2022-08-03T14:58:34;34.60;72.80
31131;DHT22;20292;50.944;4.034;2022-08-03T15:01:00;34.70;71.90
31131;DHT22;20292;50.944;4.034;2022-08-03T15:03:26;34.70;72.40
31131;DHT22;20292;50.944;4.034;2022-08-03T15:05:53;34.60;72.80
31131;DHT22;20292;50.944;4.034;2022-08-03T15:08:20;34.70;73.30
31131;DHT22;20292;50.944;4.034;2022-08-03T15:10:46;34.70;72.50
31131;DHT22;20292;50.944;4.034;2022-08-03T15:13:12;34.80;72.60
31131;DHT22;20292;50.944;4.034;2022-08-03T15:15:38;34.80;72.10
31131;DHT22;20292;50.944;4.034;2022-08-03T15:18:04;34.60;72.60
31131;DHT22;20292;50.944;4.034;2022-08-03T15:20:30;34.70;73.00
31131;DHT22;20292;50.944;4.034;2022-08-03T15:22:55;34.80;72.80
31131;DHT22;20292;50.944;4.034;2022-08-03T15:25:21;34.90;72.40
31131;DHT22;20292;50.944;4.034;2022-08-03T15:27:47;34.90;72.20
31131;DHT22;20292;50.944;4.034;2022-08-03T15:30:12;34.90;71.10
31131;DHT22;20292;50.944;4.034;2022-08-03T15:32:38;34.90;71.30
31131;DHT22;20292;50.944;4.034;2022-08-03T15:35:04;34.90;71.50
31131;DHT22;20292;50.944;4.034;2022-08-03T15:37:30;34.80;71.70
31131;DHT22;20292;50.944;4.034;2022-08-03T15:39:55;34.80;72.40
31131;DHT22;20292;50.944;4.034;2022-08-03T15:42:21;34.80;72.10
31131;DHT22;20292;50.944;4.034;2022-08-03T15:44:47;34.90;71.70
31131;DHT22;20292;50.944;4.034;2022-08-03T15:47:12;34.80;72.20
31131;DHT22;20292;50.944;4.034;2022-08-03T15:49:38;34.80;72.30
31131;DHT22;20292;50.944;4.034;2022-08-03T15:52:04;34.80;71.80
31131;DHT22;20292;50.944;4.034;2022-08-03T15:54:30;34.80;71.40
31131;DHT22;20292;50.944;4.034;2022-08-03T15:56:55;34.90;71.70
31131;DHT22;20292;50.944;4.034;2022-08-03T15:59:21;34.90;70.50
31131;DHT22;20292;50.944;4.034;2022-08-03T16:01:47;35.00;70.50
31131;DHT22;20292;50.944;4.034;2022-08-03T16:04:13;35.10;70.10
31131;DHT22;20292;50.944;4.034;2022-08-03T16:06:39;35.10;70.20
31131;DHT22;20292;50.944;4.034;2022-08-03T16:09:06;35.00;70.40